sensor_id;sensor_type;location;lat;lon;timestamp;temperature;humidity
18729;DHT22;9493;51.884;5.188;2022-10-31T00:01:34;12.30;99.90
18729;DHT22;9493;51.884;5.188;2022-10-31T00:04:01;12.40;99.90
18729;DHT22;9493;51.884;5.188;2022-10-31T00:06:29;12.50;99.90
18729;DHT22;9493;51.884;5.188;2022-10-31T00:08:57;12.50;99.90
18729;DHT22;9493;51.884;5.188;2022-10-31T00:11:25;12.50;99.90
18729;DHT22;9493;51.884;5.188;2022-10-31T00:13:52;12.60;99.90
18729;DHT22;9493;51.884;5.188;2022-10-31T00:16:22;12.60;99.90
18729;DHT22;9493;51.884;5.188;2022-10-31T00:18:49;12.50;99.90
18729;DHT22;9493;51.884;5.188;2022-10-31T00:21:16;12.50;99.90
18729;DHT22;9493;51.884;5.188;2022-10-31T00:23:43;12.60;99.90
18729;DHT22;9493;51.884;5.188;2022-10-31T00:26:10;12.50;99.90
18729;DHT22;9493;51.884;5.188;2022-10-31T00:28:37;12.60;99.90
18729;DHT22;9493;51.884;5.188;2022-10-31T00:31:06;12.30;99.90
18729;DHT22;9493;51.884;5.188;2022-10-31T00:33:36;12.50;99.90
18729;DHT22;9493;51.884;5.188;2022-10-31T00:36:03;12.40;99.90
18729;DHT22;9493;51.884;5.188;2022-10-31T00:38:31;12.40;99.90
18729;DHT22;9493;51.884;5.188;2022-10-31T00:40:57;12.40;99.90
18729;DHT22;9493;51.884;5.188;2022-10-31T00:43:24;12.40;99.90
18729;DHT22;9493;51.884;5.188;2022-10-31T00:45:51;12.30;99.90
18729;DHT22;9493;51.884;5.188;2022-10-31T00:48:18;12.30;99.90
18729;DHT22;9493;51.884;5.188;2022-10-31T00:50:46;12.30;99.90
18729;DHT22;9493;51.884;5.188;2022-10-31T00:53:13;12.30;99.90
18729;DHT22;9493;51.884;5.188;2022-10-31T00:55:39;12.20;99.90
18729;DHT22;9493;51.884;5.188;2022-10-31T00:58:06;12.20;99.90
18729;DHT22;9493;51.884;5.188;2022-10-31T01:00:33;12.20;99.90
18729;DHT22;9493;51.884;5.188;2022-10-31T01:03:00;12.20;99.90
18729;DHT22;9493;51.884;5.188;2022-10-31T01:05:27;12.20;99.90
18729;DHT22;9493;51.884;5.188;2022-10-31T01:07:55;12.10;99.90
18729;DHT22;9493;51.884;5.188;2022-10-31T01:10:22;12.10;99.90
18729;DHT22;9493;51.884;5.188;2022-10-31T01:12:49;12.10;99.90
18729;DHT22;9493;51.884;5.188;2022-10-31T01:15:18;12.10;99.90
18729;DHT22;9493;51.884;5.188;2022-10-31T01:17:46;12.10;99.90
18729;DHT22;9493;51.884;5.188;2022-10-31T01:20:14;12.10;99.90
18729;DHT22;9493;51.884;5.188;2022-10-31T01:22:42;12.10;99.90
18729;DHT22;9493;51.884;5.188;2022-10-31T01:25:10;12.00;99.90
18729;DHT22;9493;51.884;5.188;2022-10-31T01:27:37;12.00;99.90
18729;DHT22;9493;51.884;5.188;2022-10-31T01:30:05;12.00;99.90
18729;DHT22;9493;51.884;5.188;2022-10-31T01:32:32;11.90;99.90
18729;DHT22;9493;51.884;5.188;2022-10-31T01:34:59;11.90;99.90
18729;DHT22;9493;51.884;5.188;2022-10-31T01:37:25;11.90;99.90
18729;DHT22;9493;51.884;5.188;2022-10-31T01:39:52;11.70;99.90
18729;DHT22;9493;51.884;5.188;2022-10-31T01:42:22;11.70;99.90
18729;DHT22;9493;51.884;5.188;2022-10-31T01:44:55;11.60;99.90
18729;DHT22;9493;51.884;5.188;2022-10-31T01:47:37;11.60;99.90
18729;DHT22;9493;51.884;5.188;2022-10-31T01:50:10;11.70;99.90
18729;DHT22;9493;51.884;5.188;2022-10-31T01:52:39;11.60;99.90
18729;DHT22;9493;51.884;5.188;2022-10-31T01:55:09;11.50;99.90
18729;DHT22;9493;51.884;5.188;2022-10-31T01:57:42;11.50;99.90
18729;DHT22;9493;51.884;5.188;2022-10-31T02:00:11;11.40;99.90
18729;DHT22;9493;51.884;5.188;2022-10-31T02:02:38;11.30;99.90
18729;DHT22;9493;51.884;5.188;2022-10-31T02:05:08;11.30;99.90
18729;DHT22;9493;51.884;5.188;2022-10-31T02:07:39;11.30;99.90
18729;DHT22;9493;51.884;5.188;2022-10-31T02:10:08;11.30;99.90
18729;DHT22;9493;51.884;5.188;2022-10-31T02:12:35;11.20;99.90
18729;DHT22;9493;51.884;5.188;2022-10-31T02:15:05;11.10;99.90
18729;DHT22;9493;51.884;5.188;2022-10-31T02:17:33;11.10;99.90
18729;DHT22;9493;51.884;5.188;2022-10-31T02:20:07;11.20;99.90
18729;DHT22;9493;51.884;5.188;2022-10-31T02:22:42;11.10;99.90
18729;DHT22;9493;51.884;5.188;2022-10-31T02:25:30;11.00;99.90
18729;DHT22;9493;51.884;5.188;2022-10-31T02:28:19;11.00;99.90
18729;DHT22;9493;51.884;5.188;2022-10-31T02:31:01;10.90;99.90
18729;DHT22;9493;51.884;5.188;2022-10-31T02:33:38;10.90;99.90
18729;DHT22;9493;51.884;5.188;2022-10-31T02:36:11;10.90;99.90
18729;DHT22;9493;51.884;5.188;2022-10-31T02:38:51;10.80;99.90
18729;DHT22;9493;51.884;5.188;2022-10-31T02:41:23;10.80;99.90
18729;DHT22;9493;51.884;5.188;2022-10-31T02:43:58;10.80;99.90
18729;DHT22;9493;51.884;5.188;2022-10-31T02:46:34;10.80;99.90
18729;DHT22;9493;51.884;5.188;2022-10-31T02:49:07;10.70;99.90
18729;DHT22;9493;51.884;5.188;2022-10-31T02:51:34;10.60;99.90
18729;DHT22;9493;51.884;5.188;2022-10-31T02:54:02;10.60;99.90
18729;DHT22;9493;51.884;5.188;2022-10-31T02:56:29;10.60;99.90
18729;DHT22;9493;51.884;5.188;2022-10-31T02:58:58;10.60;99.90
18729;DHT22;9493;51.884;5.188;2022-10-31T03:01:49;10.70;99.90
18729;DHT22;9493;51.884;5.188;2022-10-31T03:04:49;10.60;99.90
18729;DHT22;9493;51.884;5.188;2022-10-31T03:07:26;10.60;99.90
18729;DHT22;9493;51.884;5.188;2022-10-31T03:10:03;10.50;99.90
18729;DHT22;9493;51.884;5.188;2022-10-31T03:12:38;10.50;99.90
18729;DHT22;9493;51.884;5.188;2022-10-31T03:15:12;10.50;99.90
18729;DHT22;9493;51.884;5.188;2022-10-31T03:17:50;10.50;99.90
18729;DHT22;9493;51.884;5.188;2022-10-31T03:20:23;10.60;99.90
18729;DHT22;9493;51.884;5.188;2022-10-31T03:22:52;10.40;99.90
18729;DHT22;9493;51.884;5.188;2022-10-31T03:25:21;10.40;99.90
18729;DHT22;9493;51.884;5.188;2022-10-31T03:27:49;10.40;99.90
18729;DHT22;9493;51.884;5.188;2022-10-31T03:30:17;10.40;99.90
18729;DHT22;9493;51.884;5.188;2022-10-31T03:32:50;10.40;99.90
18729;DHT22;9493;51.884;5.188;2022-10-31T03:35:20;10.30;99.90
18729;DHT22;9493;51.884;5.188;2022-10-31T03:37:51;10.30;99.90
18729;DHT22;9493;51.884;5.188;2022-10-31T03:40:21;10.40;99.90
18729;DHT22;9493;51.884;5.188;2022-10-31T03:42:53;10.40;99.90
18729;DHT22;9493;51.884;5.188;2022-10-31T03:45:23;10.40;99.90
18729;DHT22;9493;51.884;5.188;2022-10-31T03:47:53;10.30;99.90
18729;DHT22;9493;51.884;5.188;2022-10-31T03:50:21;10.30;99.90
18729;DHT22;9493;51.884;5.188;2022-10-31T03:52:56;10.30;99.90
18729;DHT22;9493;51.884;5.188;2022-10-31T03:55:28;10.30;99.90
18729;DHT22;9493;51.884;5.188;2022-10-31T03:57:58;10.30;99.90
18729;DHT22;9493;51.884;5.188;2022-10-31T04:00:27;10.30;99.90
18729;DHT22;9493;51.884;5.188;2022-10-31T04:03:00;10.30;99.90
18729;DHT22;9493;51.884;5.188;2022-10-31T04:05:30;10.30;99.90
18729;DHT22;9493;51.884;5.188;2022-10-31T04:07:58;10.30;99.90
18729;DHT22;9493;51.884;5.188;2022-10-31T04:10:27;10.30;99.90
18729;DHT22;9493;51.884;5.188;2022-10-31T04:12:57;10.30;99.90
18729;DHT22;9493;51.884;5.188;2022-10-31T04:15:27;10.20;99.90
18729;DHT22;9493;51.884;5.188;2022-10-31T04:17:58;10.20;99.90
18729;DHT22;9493;51.884;5.188;2022-10-31T04:20:33;10.20;99.90
18729;DHT22;9493;51.884;5.188;2022-10-31T04:23:00;10.20;99.90
18729;DHT22;9493;51.884;5.188;2022-10-31T04:25:27;10.20;99.90
18729;DHT22;9493;51.884;5.188;2022-10-31T04:27:54;10.20;99.90
18729;DHT22;9493;51.884;5.188;2022-10-31T04:30:21;10.20;99.90
18729;DHT22;9493;51.884;5.188;2022-10-31T04:32:48;10.20;99.90
18729;DHT22;9493;51.884;5.188;2022-10-31T04:35:16;10.10;99.90
18729;DHT22;9493;51.884;5.188;2022-10-31T04:37:43;10.20;99.90
18729;DHT22;9493;51.884;5.188;2022-10-31T04:40:11;10.10;99.90
18729;DHT22;9493;51.884;5.188;2022-10-31T04:42:38;10.10;99.90
18729;DHT22;9493;51.884;5.188;2022-10-31T04:45:05;10.10;99.90
18729;DHT22;9493;51.884;5.188;2022-10-31T04:47:33;10.10;99.90
18729;DHT22;9493;51.884;5.188;2022-10-31T04:50:00;10.10;99.90
18729;DHT22;9493;51.884;5.188;2022-10-31T04:52:28;10.00;99.90
18729;DHT22;9493;51.884;5.188;2022-10-31T04:54:55;10.10;99.90
18729;DHT22;9493;51.884;5.188;2022-10-31T04:57:22;10.20;99.90
18729;DHT22;9493;51.884;5.188;2022-10-31T04:59:48;10.00;99.90
18729;DHT22;9493;51.884;5.188;2022-10-31T05:02:15;10.00;99.90
18729;DHT22;9493;51.884;5.188;2022-10-31T05:04:42;9.90;99.90
18729;DHT22;9493;51.884;5.188;2022-10-31T05:07:09;10.00;99.90
18729;DHT22;9493;51.884;5.188;2022-10-31T05:09:37;10.00;99.90
18729;DHT22;9493;51.884;5.188;2022-10-31T05:12:04;10.00;99.90
18729;DHT22;9493;51.884;5.188;2022-10-31T05:14:31;9.90;99.90
18729;DHT22;9493;51.884;5.188;2022-10-31T05:16:57;10.00;99.90
18729;DHT22;9493;51.884;5.188;2022-10-31T05:19:24;10.00;99.90
18729;DHT22;9493;51.884;5.188;2022-10-31T05:21:51;10.00;99.90
18729;DHT22;9493;51.884;5.188;2022-10-31T05:24:18;10.00;99.90
18729;DHT22;9493;51.884;5.188;2022-10-31T05:26:49;10.00;99.90
18729;DHT22;9493;51.884;5.188;2022-10-31T05:29:15;10.00;99.90
18729;DHT22;9493;51.884;5.188;2022-10-31T05:31:42;9.90;99.90
18729;DHT22;9493;51.884;5.188;2022-10-31T05:34:09;9.90;99.90
18729;DHT22;9493;51.884;5.188;2022-10-31T05:36:36;9.90;99.90
18729;DHT22;9493;51.884;5.188;2022-10-31T05:39:03;10.00;99.90
18729;DHT22;9493;51.884;5.188;2022-10-31T05:41:29;9.90;99.90
18729;DHT22;9493;51.884;5.188;2022-10-31T05:43:58;10.00;99.90
18729;DHT22;9493;51.884;5.188;2022-10-31T05:46:24;10.00;99.90
18729;DHT22;9493;51.884;5.188;2022-10-31T05:48:51;9.90;99.90
18729;DHT22;9493;51.884;5.188;2022-10-31T05:51:18;9.90;99.90
18729;DHT22;9493;51.884;5.188;2022-10-31T05:53:46;9.90;99.90
18729;DHT22;9493;51.884;5.188;2022-10-31T05:56:12;9.90;99.90
18729;DHT22;9493;51.884;5.188;2022-10-31T05:58:39;9.80;99.90
18729;DHT22;9493;51.884;5.188;2022-10-31T06:01:07;9.80;99.90
18729;DHT22;9493;51.884;5.188;2022-10-31T06:03:34;9.90;99.90
18729;DHT22;9493;51.884;5.188;2022-10-31T06:06:01;9.80;99.90
18729;DHT22;9493;51.884;5.188;2022-10-31T06:08:28;10.00;99.90
18729;DHT22;9493;51.884;5.188;2022-10-31T06:10:55;9.90;99.90
18729;DHT22;9493;51.884;5.188;2022-10-31T06:13:22;9.80;99.90
18729;DHT22;9493;51.884;5.188;2022-10-31T06:15:48;9.80;99.90
18729;DHT22;9493;51.884;5.188;2022-10-31T06:18:16;9.80;99.90
18729;DHT22;9493;51.884;5.188;2022-10-31T06:20:43;9.90;99.90
18729;DHT22;9493;51.884;5.188;2022-10-31T06:23:10;9.80;99.90
18729;DHT22;9493;51.884;5.188;2022-10-31T06:25:37;9.80;99.90
18729;DHT22;9493;51.884;5.188;2022-10-31T06:28:04;9.80;99.90
18729;DHT22;9493;51.884;5.188;2022-10-31T06:30:31;9.70;99.90
18729;DHT22;9493;51.884;5.188;2022-10-31T06:33:02;9.80;99.90
18729;DHT22;9493;51.884;5.188;2022-10-31T06:35:31;9.70;99.90
18729;DHT22;9493;51.884;5.188;2022-10-31T06:37:57;9.70;99.90
18729;DHT22;9493;51.884;5.188;2022-10-31T06:40:24;9.70;99.90
18729;DHT22;9493;51.884;5.188;2022-10-31T06:42:58;9.70;99.90
18729;DHT22;9493;51.884;5.188;2022-10-31T06:45:25;9.70;99.90
18729;DHT22;9493;51.884;5.188;2022-10-31T06:47:52;9.70;99.90
18729;DHT22;9493;51.884;5.188;2022-10-31T06:50:19;9.70;99.90
18729;DHT22;9493;51.884;5.188;2022-10-31T06:52:51;9.70;99.90
18729;DHT22;9493;51.884;5.188;2022-10-31T06:55:18;9.70;99.90
18729;DHT22;9493;51.884;5.188;2022-10-31T06:57:49;9.70;99.90
18729;DHT22;9493;51.884;5.188;2022-10-31T07:00:16;9.80;99.90
18729;DHT22;9493;51.884;5.188;2022-10-31T07:02:43;9.80;99.90
18729;DHT22;9493;51.884;5.188;2022-10-31T07:05:10;9.90;99.90
18729;DHT22;9493;51.884;5.188;2022-10-31T07:07:36;9.90;99.90
18729;DHT22;9493;51.884;5.188;2022-10-31T07:10:05;10.00;99.90
18729;DHT22;9493;51.884;5.188;2022-10-31T07:12:31;10.00;99.90
18729;DHT22;9493;51.884;5.188;2022-10-31T07:14:58;10.00;99.90
18729;DHT22;9493;51.884;5.188;2022-10-31T07:17:25;10.00;99.90
18729;DHT22;9493;51.884;5.188;2022-10-31T07:19:51;10.10;99.90
18729;DHT22;9493;51.884;5.188;2022-10-31T07:22:18;10.10;99.90
18729;DHT22;9493;51.884;5.188;2022-10-31T07:24:45;10.10;99.90
18729;DHT22;9493;51.884;5.188;2022-10-31T07:27:13;10.10;99.90
18729;DHT22;9493;51.884;5.188;2022-10-31T07:29:39;10.10;99.90
18729;DHT22;9493;51.884;5.188;2022-10-31T07:32:06;10.20;99.90
18729;DHT22;9493;51.884;5.188;2022-10-31T07:34:33;10.20;99.90
18729;DHT22;9493;51.884;5.188;2022-10-31T07:36:59;10.20;99.90
18729;DHT22;9493;51.884;5.188;2022-10-31T07:39:26;10.30;99.90
18729;DHT22;9493;51.884;5.188;2022-10-31T07:41:53;10.40;99.90
18729;DHT22;9493;51.884;5.188;2022-10-31T07:44:21;10.50;99.90
18729;DHT22;9493;51.884;5.188;2022-10-31T07:46:48;10.50;99.90
18729;DHT22;9493;51.884;5.188;2022-10-31T07:49:14;10.60;99.90
18729;DHT22;9493;51.884;5.188;2022-10-31T07:51:41;10.70;99.90
18729;DHT22;9493;51.884;5.188;2022-10-31T07:54:08;10.80;99.90
18729;DHT22;9493;51.884;5.188;2022-10-31T07:56:34;10.80;99.90
18729;DHT22;9493;51.884;5.188;2022-10-31T07:59:01;10.90;99.90
18729;DHT22;9493;51.884;5.188;2022-10-31T08:01:29;10.90;99.90
18729;DHT22;9493;51.884;5.188;2022-10-31T08:03:56;11.10;99.90
18729;DHT22;9493;51.884;5.188;2022-10-31T08:06:22;11.00;99.90
18729;DHT22;9493;51.884;5.188;2022-10-31T08:08:49;11.20;99.90
18729;DHT22;9493;51.884;5.188;2022-10-31T08:11:16;11.50;99.90
18729;DHT22;9493;51.884;5.188;2022-10-31T08:13:43;11.70;99.90
18729;DHT22;9493;51.884;5.188;2022-10-31T08:16:09;11.80;99.90
18729;DHT22;9493;51.884;5.188;2022-10-31T08:18:37;11.90;99.90
18729;DHT22;9493;51.884;5.188;2022-10-31T08:21:04;12.00;99.90
18729;DHT22;9493;51.884;5.188;2022-10-31T08:23:31;12.20;99.90
18729;DHT22;9493;51.884;5.188;2022-10-31T08:25:58;12.20;99.90
18729;DHT22;9493;51.884;5.188;2022-10-31T08:28:24;12.30;99.90
18729;DHT22;9493;51.884;5.188;2022-10-31T08:30:51;12.30;99.90
18729;DHT22;9493;51.884;5.188;2022-10-31T08:33:18;12.40;99.90
18729;DHT22;9493;51.884;5.188;2022-10-31T08:35:46;12.60;99.90
18729;DHT22;9493;51.884;5.188;2022-10-31T08:38:14;12.70;99.90
18729;DHT22;9493;51.884;5.188;2022-10-31T08:40:40;12.70;99.90
18729;DHT22;9493;51.884;5.188;2022-10-31T08:43:11;12.80;99.90
18729;DHT22;9493;51.884;5.188;2022-10-31T08:45:38;12.90;99.90
18729;DHT22;9493;51.884;5.188;2022-10-31T08:48:06;12.90;99.90
18729;DHT22;9493;51.884;5.188;2022-10-31T08:50:34;13.00;99.90
18729;DHT22;9493;51.884;5.188;2022-10-31T08:53:04;13.00;99.90
18729;DHT22;9493;51.884;5.188;2022-10-31T08:55:32;13.10;99.90
18729;DHT22;9493;51.884;5.188;2022-10-31T08:57:59;13.10;99.90
18729;DHT22;9493;51.884;5.188;2022-10-31T09:00:26;13.30;99.90
18729;DHT22;9493;51.884;5.188;2022-10-31T09:02:56;13.40;99.90
18729;DHT22;9493;51.884;5.188;2022-10-31T09:05:24;13.40;99.90
18729;DHT22;9493;51.884;5.188;2022-10-31T09:07:52;13.30;99.90
18729;DHT22;9493;51.884;5.188;2022-10-31T09:10:22;13.40;99.90
18729;DHT22;9493;51.884;5.188;2022-10-31T09:12:54;13.40;99.90
18729;DHT22;9493;51.884;5.188;2022-10-31T09:15:21;13.40;99.90
18729;DHT22;9493;51.884;5.188;2022-10-31T09:17:48;13.50;99.90
18729;DHT22;9493;51.884;5.188;2022-10-31T09:20:15;13.60;99.90
18729;DHT22;9493;51.884;5.188;2022-10-31T09:22:41;13.60;99.90
18729;DHT22;9493;51.884;5.188;2022-10-31T09:25:08;13.70;99.90
18729;DHT22;9493;51.884;5.188;2022-10-31T09:27:36;13.70;99.90
18729;DHT22;9493;51.884;5.188;2022-10-31T09:30:04;13.80;99.90
18729;DHT22;9493;51.884;5.188;2022-10-31T09:32:31;13.90;99.90
18729;DHT22;9493;51.884;5.188;2022-10-31T09:34:57;14.00;99.90
18729;DHT22;9493;51.884;5.188;2022-10-31T09:37:24;14.20;99.90
18729;DHT22;9493;51.884;5.188;2022-10-31T09:39:51;14.40;99.90
18729;DHT22;9493;51.884;5.188;2022-10-31T09:42:43;14.50;99.90
18729;DHT22;9493;51.884;5.188;2022-10-31T09:45:16;14.70;99.90
18729;DHT22;9493;51.884;5.188;2022-10-31T09:47:56;14.90;99.90
18729;DHT22;9493;51.884;5.188;2022-10-31T09:50:29;14.90;99.90
18729;DHT22;9493;51.884;5.188;2022-10-31T09:53:05;15.00;99.90
18729;DHT22;9493;51.884;5.188;2022-10-31T09:55:37;15.10;99.90
18729;DHT22;9493;51.884;5.188;2022-10-31T09:58:10;15.10;99.90
18729;DHT22;9493;51.884;5.188;2022-10-31T10:00:40;15.20;99.90
18729;DHT22;9493;51.884;5.188;2022-10-31T10:03:13;15.30;99.90
18729;DHT22;9493;51.884;5.188;2022-10-31T10:05:46;15.20;99.90
18729;DHT22;9493;51.884;5.188;2022-10-31T10:08:19;15.20;99.90
18729;DHT22;9493;51.884;5.188;2022-10-31T10:10:50;15.30;99.90
18729;DHT22;9493;51.884;5.188;2022-10-31T10:16:31;15.30;99.90
18729;DHT22;9493;51.884;5.188;2022-10-31T10:19:12;15.50;99.90
18729;DHT22;9493;51.884;5.188;2022-10-31T10:21:45;15.20;99.90
18729;DHT22;9493;51.884;5.188;2022-10-31T10:24:27;15.30;99.90
18729;DHT22;9493;51.884;5.188;2022-10-31T10:27:05;15.30;99.90
18729;DHT22;9493;51.884;5.188;2022-10-31T10:29:44;15.40;99.90
18729;DHT22;9493;51.884;5.188;2022-10-31T10:32:19;15.40;99.90
18729;DHT22;9493;51.884;5.188;2022-10-31T10:34:51;15.60;99.90
18729;DHT22;9493;51.884;5.188;2022-10-31T10:37:26;15.50;99.90
18729;DHT22;9493;51.884;5.188;2022-10-31T10:39:59;15.60;99.90
18729;DHT22;9493;51.884;5.188;2022-10-31T10:42:27;15.70;99.90
18729;DHT22;9493;51.884;5.188;2022-10-31T10:45:17;15.70;99.90
18729;DHT22;9493;51.884;5.188;2022-10-31T10:48:07;15.70;99.90
18729;DHT22;9493;51.884;5.188;2022-10-31T10:50:40;15.70;99.90
18729;DHT22;9493;51.884;5.188;2022-10-31T10:53:16;15.80;99.90
18729;DHT22;9493;51.884;5.188;2022-10-31T10:55:59;15.70;99.90
18729;DHT22;9493;51.884;5.188;2022-10-31T10:58:29;15.80;99.90
18729;DHT22;9493;51.884;5.188;2022-10-31T11:00:57;15.80;99.90
18729;DHT22;9493;51.884;5.188;2022-10-31T11:03:24;15.90;99.90
18729;DHT22;9493;51.884;5.188;2022-10-31T11:05:52;15.90;99.90
18729;DHT22;9493;51.884;5.188;2022-10-31T11:08:26;15.90;99.90
18729;DHT22;9493;51.884;5.188;2022-10-31T11:10:58;15.90;99.90
18729;DHT22;9493;51.884;5.188;2022-10-31T11:13:25;16.00;99.90
18729;DHT22;9493;51.884;5.188;2022-10-31T11:15:58;15.90;99.90
18729;DHT22;9493;51.884;5.188;2022-10-31T11:18:27;15.70;99.90
18729;DHT22;9493;51.884;5.188;2022-10-31T11:20:57;15.70;99.90
18729;DHT22;9493;51.884;5.188;2022-10-31T11:23:25;15.80;99.90
18729;DHT22;9493;51.884;5.188;2022-10-31T11:25:55;15.80;99.90
18729;DHT22;9493;51.884;5.188;2022-10-31T11:28:22;15.70;99.90
18729;DHT22;9493;51.884;5.188;2022-10-31T11:30:51;15.70;99.90
18729;DHT22;9493;51.884;5.188;2022-10-31T11:33:24;15.60;99.90
18729;DHT22;9493;51.884;5.188;2022-10-31T11:35:53;15.70;99.90
18729;DHT22;9493;51.884;5.188;2022-10-31T11:38:21;15.70;99.90
18729;DHT22;9493;51.884;5.188;2022-10-31T11:40:54;15.70;99.90
18729;DHT22;9493;51.884;5.188;2022-10-31T11:43:22;15.70;99.90
18729;DHT22;9493;51.884;5.188;2022-10-31T11:45:49;15.60;99.90
18729;DHT22;9493;51.884;5.188;2022-10-31T11:48:17;15.60;99.90
18729;DHT22;9493;51.884;5.188;2022-10-31T11:50:50;15.70;99.90
18729;DHT22;9493;51.884;5.188;2022-10-31T11:53:19;15.70;99.90
18729;DHT22;9493;51.884;5.188;2022-10-31T11:55:47;15.80;99.90
18729;DHT22;9493;51.884;5.188;2022-10-31T11:58:26;15.80;99.90
18729;DHT22;9493;51.884;5.188;2022-10-31T12:00:54;15.80;99.90
18729;DHT22;9493;51.884;5.188;2022-10-31T12:03:37;15.80;99.90
18729;DHT22;9493;51.884;5.188;2022-10-31T12:06:12;15.90;99.90
18729;DHT22;9493;51.884;5.188;2022-10-31T12:08:40;16.00;99.90
18729;DHT22;9493;51.884;5.188;2022-10-31T12:11:15;16.00;99.90
18729;DHT22;9493;51.884;5.188;2022-10-31T12:13:56;16.20;99.90
18729;DHT22;9493;51.884;5.188;2022-10-31T12:16:30;16.30;99.90
18729;DHT22;9493;51.884;5.188;2022-10-31T12:19:02;16.60;99.90
18729;DHT22;9493;51.884;5.188;2022-10-31T12:21:51;16.70;99.90
18729;DHT22;9493;51.884;5.188;2022-10-31T12:24:29;16.80;99.90
18729;DHT22;9493;51.884;5.188;2022-10-31T12:27:10;16.90;99.90
18729;DHT22;9493;51.884;5.188;2022-10-31T12:30:00;16.80;99.90
18729;DHT22;9493;51.884;5.188;2022-10-31T12:32:36;16.80;99.90
18729;DHT22;9493;51.884;5.188;2022-10-31T12:35:24;16.90;99.90
18729;DHT22;9493;51.884;5.188;2022-10-31T12:38:10;17.00;99.90
18729;DHT22;9493;51.884;5.188;2022-10-31T12:40:51;16.80;99.90
18729;DHT22;9493;51.884;5.188;2022-10-31T12:43:35;16.80;99.90
18729;DHT22;9493;51.884;5.188;2022-10-31T12:46:04;16.70;99.90
18729;DHT22;9493;51.884;5.188;2022-10-31T12:48:50;16.70;99.90
18729;DHT22;9493;51.884;5.188;2022-10-31T12:51:24;16.80;99.90
18729;DHT22;9493;51.884;5.188;2022-10-31T12:54:10;16.90;99.90
18729;DHT22;9493;51.884;5.188;2022-10-31T12:56:50;17.00;99.90
18729;DHT22;9493;51.884;5.188;2022-10-31T12:59:27;17.10;99.90
18729;DHT22;9493;51.884;5.188;2022-10-31T13:01:59;17.10;99.90
18729;DHT22;9493;51.884;5.188;2022-10-31T13:04:39;17.20;99.90
18729;DHT22;9493;51.884;5.188;2022-10-31T13:07:11;17.30;99.90
18729;DHT22;9493;51.884;5.188;2022-10-31T13:09:46;17.40;99.90
18729;DHT22;9493;51.884;5.188;2022-10-31T13:12:18;17.30;99.90
18729;DHT22;9493;51.884;5.188;2022-10-31T13:14:48;17.40;99.90
18729;DHT22;9493;51.884;5.188;2022-10-31T13:17:22;17.40;99.90
18729;DHT22;9493;51.884;5.188;2022-10-31T13:19:51;17.40;99.90
18729;DHT22;9493;51.884;5.188;2022-10-31T13:22:22;17.40;99.90
18729;DHT22;9493;51.884;5.188;2022-10-31T13:24:55;17.30;99.90
18729;DHT22;9493;51.884;5.188;2022-10-31T13:27:25;17.40;99.90
18729;DHT22;9493;51.884;5.188;2022-10-31T13:29:58;17.30;99.90
18729;DHT22;9493;51.884;5.188;2022-10-31T13:32:30;17.30;99.90
18729;DHT22;9493;51.884;5.188;2022-10-31T13:35:03;17.40;99.90
18729;DHT22;9493;51.884;5.188;2022-10-31T13:37:36;17.40;99.90
18729;DHT22;9493;51.884;5.188;2022-10-31T13:40:13;17.40;99.90
18729;DHT22;9493;51.884;5.188;2022-10-31T13:42:53;17.30;99.90
18729;DHT22;9493;51.884;5.188;2022-10-31T13:45:23;17.40;99.90
18729;DHT22;9493;51.884;5.188;2022-10-31T13:47:59;17.40;99.90
18729;DHT22;9493;51.884;5.188;2022-10-31T13:50:27;17.40;99.90
18729;DHT22;9493;51.884;5.188;2022-10-31T13:53:10;17.30;99.90
18729;DHT22;9493;51.884;5.188;2022-10-31T13:55:41;17.30;99.90
18729;DHT22;9493;51.884;5.188;2022-10-31T13:58:22;17.30;99.90
18729;DHT22;9493;51.884;5.188;2022-10-31T14:01:15;17.20;99.90
18729;DHT22;9493;51.884;5.188;2022-10-31T14:03:45;17.20;99.90
18729;DHT22;9493;51.884;5.188;2022-10-31T14:06:14;17.20;99.90
18729;DHT22;9493;51.884;5.188;2022-10-31T14:08:48;17.20;99.90
18729;DHT22;9493;51.884;5.188;2022-10-31T14:11:22;17.10;99.90
18729;DHT22;9493;51.884;5.188;2022-10-31T14:13:50;17.10;99.90
18729;DHT22;9493;51.884;5.188;2022-10-31T14:16:20;17.10;99.90
18729;DHT22;9493;51.884;5.188;2022-10-31T14:18:50;17.00;99.90
18729;DHT22;9493;51.884;5.188;2022-10-31T14:21:27;17.00;99.90
18729;DHT22;9493;51.884;5.188;2022-10-31T14:23:55;17.00;99.90
18729;DHT22;9493;51.884;5.188;2022-10-31T14:26:35;17.00;99.90
18729;DHT22;9493;51.884;5.188;2022-10-31T14:31:53;17.00;99.90
18729;DHT22;9493;51.884;5.188;2022-10-31T14:34:23;17.00;99.90
18729;DHT22;9493;51.884;5.188;2022-10-31T14:37:15;16.90;99.90
18729;DHT22;9493;51.884;5.188;2022-10-31T14:39:53;17.00;99.90
18729;DHT22;9493;51.884;5.188;2022-10-31T14:42:38;17.00;99.90
18729;DHT22;9493;51.884;5.188;2022-10-31T14:45:17;17.00;99.90
18729;DHT22;9493;51.884;5.188;2022-10-31T14:47:56;16.80;99.90
18729;DHT22;9493;51.884;5.188;2022-10-31T14:50:37;16.90;99.90
18729;DHT22;9493;51.884;5.188;2022-10-31T14:53:08;16.90;99.90
18729;DHT22;9493;51.884;5.188;2022-10-31T14:55:41;16.90;99.90
18729;DHT22;9493;51.884;5.188;2022-10-31T14:58:17;16.90;99.90
18729;DHT22;9493;51.884;5.188;2022-10-31T15:00:52;16.90;99.90
18729;DHT22;9493;51.884;5.188;2022-10-31T15:03:24;16.80;99.90
18729;DHT22;9493;51.884;5.188;2022-10-31T15:05:55;16.90;99.90
18729;DHT22;9493;51.884;5.188;2022-10-31T15:08:31;17.00;99.90
18729;DHT22;9493;51.884;5.188;2022-10-31T15:10:59;16.90;99.90
18729;DHT22;9493;51.884;5.188;2022-10-31T15:13:30;16.90;99.90
18729;DHT22;9493;51.884;5.188;2022-10-31T15:15:57;16.90;99.90
18729;DHT22;9493;51.884;5.188;2022-10-31T15:18:25;16.90;99.90
18729;DHT22;9493;51.884;5.188;2022-10-31T15:20:53;17.00;99.90
18729;DHT22;9493;51.884;5.188;2022-10-31T15:23:23;17.10;99.90
18729;DHT22;9493;51.884;5.188;2022-10-31T15:25:57;17.00;99.90
18729;DHT22;9493;51.884;5.188;2022-10-31T15:28:25;17.00;99.90
18729;DHT22;9493;51.884;5.188;2022-10-31T15:30:55;16.90;99.90
18729;DHT22;9493;51.884;5.188;2022-10-31T15:33:24;16.80;99.90
18729;DHT22;9493;51.884;5.188;2022-10-31T15:35:55;16.80;99.90
18729;DHT22;9493;51.884;5.188;2022-10-31T15:38:23;16.70;99.90
18729;DHT22;9493;51.884;5.188;2022-10-31T15:40:55;16.70;99.90
18729;DHT22;9493;51.884;5.188;2022-10-31T15:43:23;16.60;99.90
18729;DHT22;9493;51.884;5.188;2022-10-31T15:45:50;16.50;99.90
18729;DHT22;9493;51.884;5.188;2022-10-31T15:48:21;16.50;99.90
18729;DHT22;9493;51.884;5.188;2022-10-31T15:50:51;16.40;99.90
18729;DHT22;9493;51.884;5.188;2022-10-31T15:53:21;16.30;99.90
18729;DHT22;9493;51.884;5.188;2022-10-31T15:55:52;16.30;99.90
18729;DHT22;9493;51.884;5.188;2022-10-31T15:58:19;16.20;99.90
18729;DHT22;9493;51.884;5.188;2022-10-31T16:00:57;16.10;99.90
18729;DHT22;9493;51.884;5.188;2022-10-31T16:03:27;16.10;99.90
18729;DHT22;9493;51.884;5.188;2022-10-31T16:05:57;16.00;99.90
18729;DHT22;9493;51.884;5.188;2022-10-31T16:08:32;15.90;99.90
18729;DHT22;9493;51.884;5.188;2022-10-31T16:11:01;15.90;99.90
18729;DHT22;9493;51.884;5.188;2022-10-31T16:13:41;15.80;99.90
18729;DHT22;9493;51.884;5.188;2022-10-31T16:16:18;15.80;99.90